createdAt,value
2019-02-04T00:00:41.114Z,71.58
2019-02-04T00:03:12.799Z,71.57
2019-02-04T00:05:43.107Z,71.82
2019-02-04T00:08:13.610Z,72.17
2019-02-04T00:10:45.768Z,72.34
2019-02-04T00:13:17.002Z,72.47
2019-02-04T00:15:47.623Z,72.80
2019-02-04T00:18:18.179Z,73.00
2019-02-04T00:20:48.476Z,73.07
2019-02-04T00:23:22.567Z,73.07
2019-02-04T00:25:53.102Z,73.16
2019-02-04T00:28:23.439Z,73.37
2019-02-04T00:30:53.878Z,73.50
2019-02-04T00:33:24.779Z,73.75
2019-02-04T00:35:56.031Z,73.95
2019-02-04T00:38:28.857Z,74.00
2019-02-04T00:40:59.645Z,74.03
2019-02-04T00:43:29.879Z,74.16
2019-02-04T00:46:00.423Z,74.09
2019-02-04T00:48:31.513Z,73.97
2019-02-04T00:51:02.139Z,74.06
2019-02-04T00:53:35.330Z,74.20
2019-02-04T00:56:06.429Z,74.20
2019-02-04T00:58:36.683Z,74.28
2019-02-04T01:01:10.177Z,74.32
2019-02-04T01:03:41.049Z,74.26
2019-02-04T01:06:12.897Z,74.43
2019-02-04T01:08:43.371Z,74.33
2019-02-04T01:11:14.262Z,74.35
2019-02-04T01:13:44.506Z,74.41
2019-02-04T01:16:14.672Z,74.57
2019-02-04T01:18:44.898Z,74.50
2019-02-04T01:21:14.840Z,74.66
2019-02-04T01:23:44.901Z,74.80
2019-02-04T01:26:15.793Z,74.88
2019-02-04T01:28:45.799Z,75.04
2019-02-04T01:31:17.191Z,74.97
2019-02-04T01:33:47.359Z,74.97
2019-02-04T01:36:17.760Z,74.93
2019-02-04T01:38:47.728Z,74.94
2019-02-04T01:41:18.049Z,75.04
2019-02-04T01:43:47.858Z,75.12
2019-02-04T01:46:18.405Z,75.14
2019-02-04T01:48:48.623Z,75.38
2019-02-04T01:51:18.519Z,75.47
2019-02-04T01:53:48.848Z,75.52
2019-02-04T01:56:19.275Z,75.52
2019-02-04T01:58:49.146Z,75.41
2019-02-04T02:01:18.989Z,75.47
2019-02-04T02:03:49.651Z,75.56
2019-02-04T02:06:20.058Z,75.67
2019-02-04T02:08:49.898Z,75.74
2019-02-04T02:11:20.444Z,75.87
2019-02-04T02:13:50.276Z,75.91
2019-02-04T02:16:20.420Z,75.97
2019-02-04T02:18:50.602Z,76.03
2019-02-04T02:21:20.684Z,76.02
2019-02-04T02:23:50.523Z,76.12
2019-02-04T02:26:20.459Z,76.28
2019-02-04T02:28:50.324Z,76.34
2019-02-04T02:31:20.438Z,76.54
2019-02-04T02:33:50.523Z,76.68
2019-02-04T02:36:20.435Z,76.68
2019-02-04T02:38:51.265Z,76.53
2019-02-04T02:41:21.351Z,76.47
2019-02-04T02:43:51.192Z,76.42
2019-02-04T02:46:21.390Z,76.62
2019-02-04T02:48:51.324Z,76.78
2019-02-04T02:51:22.433Z,76.91
2019-02-04T02:53:52.349Z,76.83
2019-02-04T02:56:22.200Z,76.77
2019-02-04T02:58:52.233Z,76.68
2019-02-04T03:01:22.793Z,76.64
2019-02-04T03:03:52.831Z,76.59
2019-02-04T03:06:23.044Z,76.56
2019-02-04T03:08:52.829Z,76.63
2019-02-04T03:11:22.874Z,76.61
2019-02-04T03:13:52.672Z,76.63
2019-02-04T03:16:22.936Z,76.76
2019-02-04T03:18:53.090Z,76.88
2019-02-04T03:21:22.951Z,76.93
2019-02-04T03:23:53.385Z,77.13
2019-02-04T03:26:23.964Z,77.18
2019-02-04T03:28:53.980Z,77.36
2019-02-04T03:31:24.337Z,77.37
2019-02-04T03:33:54.304Z,77.31
2019-02-04T03:36:24.142Z,77.25
2019-02-04T03:38:54.588Z,77.24
2019-02-04T03:41:25.087Z,77.25
2019-02-04T03:43:57.218Z,77.11
2019-02-04T03:46:27.124Z,77.06
2019-02-04T03:48:57.030Z,76.95
2019-02-04T03:51:27.219Z,76.97
2019-02-04T03:53:57.402Z,76.94
2019-02-04T03:56:27.527Z,76.85
2019-02-04T03:58:57.580Z,76.74
2019-02-04T04:01:27.671Z,76.56
2019-02-04T04:03:57.608Z,76.43
2019-02-04T04:06:27.440Z,76.44
2019-02-04T04:08:57.620Z,76.40
2019-02-04T04:11:27.540Z,76.20
2019-02-04T04:13:57.818Z,76.24
2019-02-04T04:16:27.845Z,76.12
2019-02-04T04:18:57.682Z,76.03
2019-02-04T04:21:29.225Z,75.91
2019-02-04T04:23:59.306Z,75.91
2019-02-04T04:26:29.422Z,75.95
2019-02-04T04:28:59.571Z,76.06
2019-02-04T04:31:29.505Z,76.20
2019-02-04T04:33:59.713Z,76.41
2019-02-04T04:36:29.625Z,76.34
2019-02-04T04:38:59.593Z,76.30
2019-02-04T04:41:29.719Z,76.31
2019-02-04T04:43:59.617Z,76.30
2019-02-04T04:46:29.620Z,76.29
2019-02-04T04:49:00.151Z,76.22
2019-02-04T04:51:30.104Z,76.13
2019-02-04T04:53:59.883Z,75.96
2019-02-04T04:56:29.772Z,75.85
2019-02-04T04:58:59.648Z,75.80
2019-02-04T05:01:29.921Z,75.72
2019-02-04T05:04:00.791Z,75.59
2019-02-04T05:06:30.806Z,75.43
2019-02-04T05:09:02.132Z,75.06
2019-02-04T05:11:39.304Z,74.79
2019-02-04T05:14:09.891Z,74.66
2019-02-04T05:16:40.703Z,74.42
2019-02-04T05:19:10.665Z,74.41
2019-02-04T05:21:41.114Z,74.42
2019-02-04T05:24:11.224Z,74.47
2019-02-04T05:26:41.282Z,74.60
2019-02-04T05:29:11.116Z,74.50
2019-02-04T05:31:41.456Z,74.26
2019-02-04T05:34:11.374Z,74.01
2019-02-04T05:36:41.395Z,73.70
2019-02-04T05:39:11.593Z,73.50
2019-02-04T05:41:43.047Z,73.37
2019-02-04T05:44:12.946Z,73.11
2019-02-04T05:46:43.514Z,72.93
2019-02-04T05:49:13.535Z,72.69
2019-02-04T05:51:43.564Z,72.53
2019-02-04T05:54:14.105Z,72.33
2019-02-04T05:56:44.384Z,72.37
2019-02-04T05:59:14.394Z,72.23
2019-02-04T06:01:44.516Z,71.99
2019-02-04T06:04:14.439Z,71.91
2019-02-04T06:06:44.994Z,71.59
2019-02-04T06:09:14.855Z,71.62
2019-02-04T06:11:45.051Z,71.58
2019-02-04T06:14:15.466Z,71.55
2019-02-04T06:16:46.457Z,71.68
2019-02-04T06:19:16.514Z,71.63
2019-02-04T06:21:47.531Z,71.44
2019-02-04T06:24:18.790Z,71.22
2019-02-04T06:26:49.955Z,71.32
2019-02-04T06:29:20.500Z,71.42
2019-02-04T06:31:52.358Z,71.61
2019-02-04T06:36:51.923Z,71.73
2019-02-04T06:39:22.099Z,71.60
2019-02-04T06:41:52.475Z,71.40
2019-02-04T06:44:25.848Z,71.12
2019-02-04T06:46:56.158Z,71.14
2019-02-04T06:49:26.455Z,71.23
2019-02-04T06:51:56.716Z,71.43
2019-02-04T06:54:26.934Z,71.55
2019-02-04T06:56:56.920Z,71.55
2019-02-04T06:59:26.885Z,71.62
2019-02-04T07:01:57.878Z,71.62
2019-02-04T07:06:59.341Z,71.84
2019-02-04T07:09:30.138Z,71.86
2019-02-04T07:12:00.624Z,71.90
2019-02-04T07:14:31.822Z,71.82
2019-02-04T07:17:03.943Z,71.84
2019-02-04T07:19:34.749Z,71.74
2019-02-04T07:22:05.739Z,71.81
2019-02-04T07:24:42.927Z,71.86
2019-02-04T07:27:08.875Z,71.92
2019-02-04T07:29:38.803Z,71.89
2019-02-04T07:32:08.792Z,71.86
2019-02-04T07:34:39.092Z,71.86
2019-02-04T07:37:09.530Z,71.90
2019-02-04T07:39:39.772Z,72.12
2019-02-04T07:42:10.227Z,72.15
2019-02-04T07:44:40.907Z,71.98
2019-02-04T07:47:12.719Z,71.85
2019-02-04T07:49:42.807Z,71.73
2019-02-04T07:52:12.799Z,71.72
2019-02-04T07:54:43.051Z,71.71
2019-02-04T07:57:14.243Z,71.90
2019-02-04T07:59:44.481Z,72.04
2019-02-04T08:02:17.034Z,72.02
2019-02-04T08:04:48.926Z,71.86
2019-02-04T08:07:19.676Z,71.66
2019-02-04T08:09:50.213Z,71.46
2019-02-04T08:12:21.492Z,71.31
2019-02-04T08:14:51.736Z,71.28
2019-02-04T08:17:21.718Z,71.30
2019-02-04T08:19:56.851Z,71.33
2019-02-04T08:22:27.107Z,71.39
2019-02-04T08:24:57.705Z,71.36
2019-02-04T08:27:28.141Z,71.19
2019-02-04T08:29:59.861Z,70.96
2019-02-04T08:32:30.073Z,70.87
2019-02-04T08:35:00.568Z,70.79
2019-02-04T08:37:30.918Z,70.56
2019-02-04T08:40:01.925Z,70.50
2019-02-04T08:42:35.374Z,70.33
2019-02-04T08:45:05.177Z,70.30
2019-02-04T08:47:35.370Z,70.35
2019-02-04T08:50:09.697Z,70.13
2019-02-04T08:52:39.791Z,69.84
2019-02-04T08:55:10.401Z,69.53
2019-02-04T08:57:40.681Z,69.25
2019-02-04T09:00:14.473Z,69.19
2019-02-04T09:02:45.126Z,68.96
2019-02-04T09:05:16.767Z,68.68
2019-02-04T09:07:46.952Z,68.45
2019-02-04T09:10:19.943Z,68.14
2019-02-04T09:12:52.270Z,68.16
2019-02-04T09:15:22.692Z,68.40
2019-02-04T09:17:53.299Z,68.17
2019-02-04T09:20:24.783Z,67.82
2019-02-04T09:22:55.474Z,67.70
2019-02-04T09:25:26.527Z,67.59
2019-02-04T09:27:57.047Z,67.26
2019-02-04T09:30:28.420Z,67.00
2019-02-04T09:32:59.701Z,66.94
2019-02-04T09:35:29.992Z,66.75
2019-02-04T09:38:00.938Z,66.52
2019-02-04T09:40:40.494Z,66.63
2019-02-04T09:43:12.925Z,66.69
2019-02-04T09:45:45.380Z,66.42
2019-02-04T09:48:19.072Z,66.37
2019-02-04T09:50:51.704Z,66.58
2019-02-04T09:53:22.453Z,66.43
2019-02-04T09:55:52.760Z,66.51
2019-02-04T09:58:23.131Z,66.31
2019-02-04T10:00:55.455Z,65.97
2019-02-04T10:03:27.579Z,65.75
2019-02-04T10:06:01.500Z,65.67
2019-02-04T10:08:32.908Z,65.24
2019-02-04T10:11:02.972Z,65.07
2019-02-04T10:13:36.136Z,64.72
2019-02-04T10:16:07.855Z,64.50
2019-02-04T10:18:38.318Z,64.25
2019-02-04T10:21:10.582Z,63.61
2019-02-04T10:23:40.519Z,63.13
2019-02-04T10:26:12.313Z,62.71
2019-02-04T10:28:42.813Z,62.41
2019-02-04T10:31:13.231Z,61.87
2019-02-04T10:33:43.813Z,61.61
2019-02-04T10:36:15.680Z,61.29
2019-02-04T10:38:47.013Z,60.90
2019-02-04T10:41:17.432Z,60.56
2019-02-04T10:43:47.520Z,60.38
2019-02-04T10:46:18.226Z,60.22
2019-02-04T10:48:48.762Z,59.80
2019-02-04T10:51:19.309Z,59.30
2019-02-04T10:53:50.128Z,58.60
2019-02-04T10:56:23.780Z,58.03
2019-02-04T10:58:58.664Z,57.64
2019-02-04T11:01:30.209Z,56.85
2019-02-04T11:04:00.718Z,56.41
2019-02-04T11:06:31.156Z,55.89
2019-02-04T11:09:09.292Z,56.04
2019-02-04T11:11:40.709Z,55.63
2019-02-04T11:14:11.249Z,54.86
2019-02-04T11:16:43.670Z,54.53
2019-02-04T11:19:18.424Z,53.97
2019-02-04T11:21:48.419Z,52.84
2019-02-04T11:24:19.116Z,52.87
2019-02-04T11:26:49.031Z,51.75
2019-02-04T11:29:22.283Z,51.75
2019-02-04T11:31:52.927Z,51.41
2019-02-04T11:34:23.271Z,51.43
2019-02-04T11:36:54.119Z,50.99
2019-02-04T11:39:24.991Z,50.99
2019-02-04T11:41:58.610Z,51.06
2019-02-04T11:44:30.310Z,51.46
2019-02-04T11:47:02.409Z,50.62
2019-02-04T11:49:33.801Z,50.78
2019-02-04T11:52:06.928Z,50.78
2019-02-04T11:54:38.496Z,49.66
2019-02-04T11:57:08.794Z,49.66
2019-02-04T11:59:39.890Z,48.36
2019-02-04T12:02:11.027Z,48.36
2019-02-04T12:04:41.422Z,49.00
2019-02-04T12:07:12.122Z,49.00
2019-02-04T12:09:42.194Z,48.22
2019-02-04T12:12:13.082Z,48.22
2019-02-04T12:14:43.450Z,48.24
2019-02-04T12:17:13.604Z,48.22
2019-02-04T12:19:44.090Z,48.22
2019-02-04T12:22:14.993Z,48.11
2019-02-04T12:24:53.033Z,47.71
2019-02-04T12:27:31.900Z,47.24
2019-02-04T12:29:57.553Z,47.24
2019-02-04T12:32:29.175Z,46.58
2019-02-04T12:35:00.371Z,45.78
2019-02-04T12:37:32.501Z,45.66
2019-02-04T12:40:05.838Z,46.44
2019-02-04T12:42:36.574Z,46.96
2019-02-04T12:45:09.639Z,47.03
2019-02-04T12:47:40.031Z,46.57
2019-02-04T12:50:10.794Z,46.20
2019-02-04T12:52:40.914Z,46.79
2019-02-04T12:55:13.807Z,46.71
2019-02-04T12:57:44.415Z,46.32
2019-02-04T13:00:17.893Z,46.38
2019-02-04T13:02:48.705Z,46.14
2019-02-04T13:05:37.875Z,46.23
2019-02-04T13:08:10.001Z,46.21
2019-02-04T13:10:40.896Z,46.09
2019-02-04T13:13:14.179Z,45.86
2019-02-04T13:15:44.609Z,46.15
2019-02-04T13:18:16.039Z,46.45
2019-02-04T13:20:48.258Z,46.47
2019-02-04T13:23:21.321Z,46.70
2019-02-04T13:25:54.321Z,46.85
2019-02-04T13:28:36.688Z,46.58
2019-02-04T13:31:07.110Z,46.56
2019-02-04T13:33:39.190Z,46.88
2019-02-04T13:36:13.111Z,47.04
2019-02-04T13:38:44.497Z,47.06
2019-02-04T13:41:15.142Z,47.24
2019-02-04T13:43:47.559Z,47.57
2019-02-04T13:46:17.831Z,47.48
2019-02-04T13:48:48.848Z,47.57
2019-02-04T13:51:19.023Z,47.25
2019-02-04T13:53:49.130Z,47.03
2019-02-04T13:56:20.521Z,47.00
2019-02-04T13:58:51.424Z,47.68
2019-02-04T14:01:22.112Z,48.26
2019-02-04T14:03:52.358Z,48.25
2019-02-04T14:06:22.625Z,48.52
2019-02-04T14:08:53.083Z,48.30
2019-02-04T14:11:26.670Z,48.14
2019-02-04T14:13:57.220Z,47.59
2019-02-04T14:16:31.642Z,47.63
2019-02-04T14:19:06.603Z,47.70
2019-02-04T14:21:39.617Z,47.70
2019-02-04T14:24:10.242Z,47.21
2019-02-04T14:26:44.787Z,47.91
2019-02-04T14:29:26.620Z,47.91
2019-02-04T14:31:56.919Z,48.15
2019-02-04T14:34:34.691Z,48.15
2019-02-04T14:37:06.311Z,48.40
2019-02-04T14:39:36.872Z,48.87
2019-02-04T14:42:11.174Z,48.63
2019-02-04T14:44:55.835Z,48.63
2019-02-04T14:47:34.328Z,48.79
2019-02-04T14:51:00.827Z,48.70
2019-02-04T14:53:54.404Z,48.44
2019-02-04T14:57:07.422Z,48.44
2019-02-04T15:00:04.566Z,48.46
2019-02-04T15:02:51.450Z,48.46
2019-02-04T15:05:35.060Z,49.08
2019-02-04T15:08:37.600Z,49.08
2019-02-04T15:11:35.244Z,49.05
2019-02-04T15:14:41.133Z,49.64
2019-02-04T15:17:24.800Z,49.64
2019-02-04T15:20:21.052Z,49.49
2019-02-04T15:23:26.400Z,49.43
2019-02-04T15:26:44.870Z,49.43
2019-02-04T15:29:20.349Z,49.96
2019-02-04T15:32:23.104Z,50.59
2019-02-04T15:35:33.744Z,50.91
2019-02-04T15:38:25.549Z,51.18
2019-02-04T15:41:10.142Z,51.91
2019-02-04T15:44:42.906Z,52.46
2019-02-04T15:47:28.864Z,52.79
2019-02-04T15:50:14.927Z,52.77
2019-02-04T15:52:48.858Z,52.94
2019-02-04T15:55:23.286Z,52.98
2019-02-04T15:57:54.500Z,53.16
2019-02-04T16:00:25.424Z,53.30
2019-02-04T16:02:56.558Z,53.50
2019-02-04T16:05:29.135Z,53.84
2019-02-04T16:07:59.412Z,53.97
2019-02-04T16:10:39.537Z,54.21
2019-02-04T16:13:15.998Z,54.54
2019-02-04T16:15:47.944Z,54.89
2019-02-04T16:18:24.853Z,55.51
2019-02-04T16:21:03.264Z,55.83
2019-02-04T16:23:40.271Z,56.01
2019-02-04T16:26:15.131Z,56.19
2019-02-04T16:28:45.642Z,56.32
2019-02-04T16:31:21.843Z,56.29
2019-02-04T16:33:55.160Z,56.49
2019-02-04T16:36:27.243Z,56.57
2019-02-04T16:39:02.124Z,56.89
2019-02-04T16:41:59.637Z,56.76
2019-02-04T16:44:40.593Z,56.58
2019-02-04T16:47:15.642Z,56.58
2019-02-04T16:49:46.653Z,56.66
2019-02-04T16:52:17.582Z,56.62
2019-02-04T16:54:49.779Z,56.87
2019-02-04T16:57:20.886Z,56.95
2019-02-04T16:59:56.484Z,57.01
2019-02-04T17:02:29.830Z,56.87
2019-02-04T17:05:00.928Z,56.91
2019-02-04T17:07:35.127Z,56.91
2019-02-04T17:10:10.142Z,56.81
2019-02-04T17:12:43.339Z,56.87
2019-02-04T17:15:16.441Z,56.97
2019-02-04T17:17:57.835Z,57.05
2019-02-04T17:20:38.261Z,57.09
2019-02-04T17:23:22.501Z,57.33
2019-02-04T17:26:39.961Z,57.31
2019-02-04T17:29:12.286Z,57.42
2019-02-04T17:31:43.122Z,57.48
2019-02-04T17:34:15.288Z,57.56
2019-02-04T17:37:11.768Z,57.62
2019-02-04T17:39:47.706Z,57.58
2019-02-04T17:42:22.519Z,57.48
2019-02-04T17:45:04.340Z,57.41
2019-02-04T17:48:08.231Z,57.50
2019-02-04T17:50:39.281Z,57.29
2019-02-04T17:53:20.012Z,57.17
2019-02-04T17:55:53.832Z,57.12
2019-02-04T17:58:33.955Z,57.29
2019-02-04T18:01:07.669Z,57.27
2019-02-04T18:03:43.465Z,57.38
2019-02-04T18:06:21.404Z,57.54
2019-02-04T18:08:52.915Z,57.72
2019-02-04T18:11:25.758Z,58.03
2019-02-04T18:13:56.287Z,58.06
2019-02-04T18:16:26.594Z,57.78
2019-02-04T18:18:56.814Z,57.70
2019-02-04T18:21:26.898Z,57.53
2019-02-04T18:23:57.776Z,57.45
2019-02-04T18:26:29.497Z,57.62
2019-02-04T18:29:00.567Z,57.68
2019-02-04T18:31:34.120Z,57.69
2019-02-04T18:34:05.830Z,57.90
2019-02-04T18:36:39.863Z,57.97
2019-02-04T18:39:14.908Z,57.98
2019-02-04T18:41:50.337Z,57.92
2019-02-04T18:44:21.845Z,57.86
2019-02-04T18:46:54.540Z,57.93
2019-02-04T18:49:27.074Z,57.97
2019-02-04T18:52:00.580Z,58.00
2019-02-04T18:54:32.704Z,57.93
2019-02-04T18:57:05.317Z,57.99
2019-02-04T18:59:36.232Z,57.92
2019-02-04T19:02:09.957Z,57.97
2019-02-04T19:04:45.238Z,58.03
2019-02-04T19:07:17.778Z,58.08
2019-02-04T19:09:49.554Z,58.24
2019-02-04T19:12:24.285Z,58.32
2019-02-04T19:15:00.292Z,58.35
2019-02-04T19:17:31.421Z,58.46
2019-02-04T19:20:02.478Z,58.47
2019-02-04T19:22:36.478Z,58.42
2019-02-04T19:25:13.973Z,58.37
2019-02-04T19:27:50.016Z,58.27
2019-02-04T19:30:47.321Z,58.30
2019-02-04T19:33:22.104Z,58.31
2019-02-04T19:35:58.106Z,58.04
2019-02-04T19:38:39.186Z,58.03
2019-02-04T19:41:23.889Z,57.92
2019-02-04T19:44:05.964Z,58.09
2019-02-04T19:46:43.173Z,57.96
2019-02-04T19:49:22.351Z,57.96
2019-02-04T19:52:06.687Z,57.85
2019-02-04T19:54:39.525Z,57.94
2019-02-04T19:57:10.955Z,57.96
2019-02-04T19:59:48.537Z,58.02
2019-02-04T20:02:21.430Z,57.94
2019-02-04T20:04:55.913Z,57.95
2019-02-04T20:07:32.374Z,57.92
2019-02-04T20:10:05.664Z,57.83
2019-02-04T20:12:39.961Z,57.75
2019-02-04T20:15:21.587Z,57.60
2019-02-04T20:17:54.749Z,57.49
2019-02-04T20:20:31.502Z,57.20
2019-02-04T20:23:07.076Z,56.97
2019-02-04T20:25:37.348Z,56.71
2019-02-04T20:28:42.103Z,56.49
2019-02-04T20:31:23.644Z,56.51
2019-02-04T20:34:05.719Z,56.42
2019-02-04T20:36:38.081Z,56.16
2019-02-04T20:39:17.073Z,55.84
2019-02-04T20:41:51.462Z,55.68
2019-02-04T20:44:25.074Z,55.71
2019-02-04T20:47:05.612Z,55.39
2019-02-04T20:49:43.357Z,55.41
2019-02-04T20:55:56.606Z,55.46
2019-02-04T20:58:27.260Z,55.31
2019-02-04T21:01:09.918Z,55.34
2019-02-04T21:03:42.191Z,55.49
2019-02-04T21:06:13.187Z,55.79
2019-02-04T21:08:46.011Z,55.87
2019-02-04T21:11:16.801Z,55.88
2019-02-04T21:13:52.450Z,56.04
2019-02-04T21:16:23.640Z,56.20
2019-02-04T21:18:55.962Z,56.15
2019-02-04T21:21:27.792Z,56.22
2019-02-04T21:23:59.560Z,56.08
2019-02-04T21:26:40.749Z,55.86
2019-02-04T21:29:11.076Z,55.77
2019-02-04T21:31:41.036Z,55.85
2019-02-04T21:34:11.196Z,55.89
2019-02-04T21:36:46.961Z,55.98
2019-02-04T21:39:17.253Z,55.66
2019-02-04T21:41:47.290Z,55.49
2019-02-04T21:44:18.563Z,55.30
2019-02-04T21:46:48.518Z,55.32
2019-02-04T21:49:18.921Z,55.39
2019-02-04T21:51:49.285Z,55.18
2019-02-04T21:54:19.525Z,55.05
2019-02-04T21:56:49.874Z,54.96
2019-02-04T21:59:20.813Z,55.14
2019-02-04T22:01:51.499Z,55.45
2019-02-04T22:04:21.803Z,55.80
2019-02-04T22:06:52.300Z,56.11
2019-02-04T22:09:23.437Z,56.20
2019-02-04T22:11:54.684Z,56.40
2019-02-04T22:14:37.597Z,56.82
2019-02-04T22:17:08.851Z,56.97
2019-02-04T22:19:38.800Z,57.20
2019-02-04T22:22:09.403Z,57.35
2019-02-04T22:24:39.441Z,57.40
2019-02-04T22:27:09.550Z,57.37
2019-02-04T22:29:40.138Z,57.26
2019-02-04T22:32:12.934Z,57.10
2019-02-04T22:34:45.627Z,57.03
2019-02-04T22:37:15.018Z,56.98
2019-02-04T22:39:45.143Z,56.70
2019-02-04T22:42:15.968Z,56.66
2019-02-04T22:44:46.949Z,56.49
2019-02-04T22:47:17.935Z,56.28
2019-02-04T22:49:48.623Z,56.26
2019-02-04T22:52:18.944Z,56.02
2019-02-04T22:54:49.181Z,55.92
2019-02-04T22:57:20.383Z,55.58
2019-02-04T22:59:50.692Z,55.70
2019-02-04T23:02:26.360Z,55.46
2019-02-04T23:04:57.068Z,55.37
2019-02-04T23:07:27.522Z,55.06
2019-02-04T23:09:58.063Z,54.92
2019-02-04T23:12:29.534Z,54.62
2019-02-04T23:15:01.144Z,54.79
2019-02-04T23:17:34.215Z,54.88
2019-02-04T23:20:09.174Z,55.04
2019-02-04T23:22:44.119Z,55.05
2019-02-04T23:25:14.408Z,54.88
2019-02-04T23:27:44.513Z,54.97
2019-02-04T23:30:15.038Z,54.85
2019-02-04T23:32:45.881Z,54.50
2019-02-04T23:35:16.212Z,54.40
2019-02-04T23:37:46.466Z,54.15
2019-02-04T23:40:18.352Z,53.95
2019-02-04T23:42:48.864Z,54.04
2019-02-04T23:45:19.242Z,53.88
2019-02-04T23:47:49.610Z,53.81
2019-02-04T23:50:20.160Z,53.62
2019-02-04T23:52:50.555Z,53.67
2019-02-04T23:55:21.054Z,53.67
2019-02-04T23:57:51.183Z,53.81
